Time;durP1;ratioP1;P1;durP2;ratioP2;P2;SDS_P1;SDS_P2;PMS_P1;PMS_P2;Temp;Humidity;BMP_temperature;BMP_pressure;BME280_temperature;BME280_humidity;BME280_pressure;Samples;Min_cycle;Max_cycle;Signal;HPM_P1;HPM_P2
2023/03/18 00:00:43;;;;;;;0.20;0.20;;;7.60;99.90;;;;;;5056611;28;20466;-75
2023/03/18 00:03:09;;;;;;;0.20;0.20;;;7.70;99.90;;;;;;5056335;28;20021;-75
2023/03/18 00:05:35;;;;;;;0.20;0.20;;;7.70;99.90;;;;;;5038967;28;20025;-74
2023/03/18 00:08:03;;;;;;;0.20;0.20;;;7.60;99.90;;;;;;5062443;28;20031;-75
2023/03/18 00:10:33;;;;;;;0.20;0.20;;;7.70;99.90;;;;;;5056676;28;20481;-74
2023/03/18 00:13:00;;;;;;;0.20;0.20;;;7.60;99.90;;;;;;5034992;28;20029;-75
2023/03/18 00:15:26;;;;;;;0.17;0.17;;;7.60;99.90;;;;;;5036545;28;20076;-75
2023/03/18 00:17:52;;;;;;;0.20;0.20;;;7.60;99.90;;;;;;5048112;28;20107;-75
2023/03/18 00:20:27;;;;;;;0.10;0.10;;;7.60;99.90;;;;;;5056661;28;20055;-75
2023/03/18 00:22:53;;;;;;;0.20;0.20;;;7.50;99.90;;;;;;5056586;28;20505;-74
2023/03/18 00:25:19;;;;;;;0.20;0.20;;;7.40;99.90;;;;;;5056139;28;20029;-74
2023/03/18 00:27:44;;;;;;;0.20;0.20;;;7.40;99.90;;;;;;5056368;28;20024;-74
2023/03/18 00:30:11;;;;;;;0.15;0.15;;;7.40;99.90;;;;;;5056007;28;20028;-74
2023/03/18 00:32:37;;;;;;;0.10;0.10;;;7.30;99.90;;;;;;5056492;28;20078;-74
2023/03/18 00:35:03;;;;;;;0.20;0.20;;;7.20;99.90;;;;;;5029378;28;20183;-75
2023/03/18 00:37:29;;;;;;;0.10;0.10;;;7.10;99.90;;;;;;5044477;23;20402;-75
2023/03/18 00:40:05;;;;;;;0.20;0.20;;;7.00;99.90;;;;;;5038094;28;20033;-74
2023/03/18 00:42:38;;;;;;;0.20;0.20;;;6.90;99.90;;;;;;5017997;28;20025;-75
2023/03/18 00:45:06;;;;;;;0.20;0.20;;;6.90;99.90;;;;;;5050727;28;20033;-75
2023/03/18 00:47:32;;;;;;;0.20;0.20;;;6.90;99.90;;;;;;5055637;28;20029;-75
2023/03/18 00:49:57;;;;;;;0.10;0.10;;;6.90;99.90;;;;;;5056226;28;20055;-74
2023/03/18 00:52:24;;;;;;;0.20;0.20;;;6.90;99.90;;;;;;5055501;28;20025;-75
2023/03/18 00:54:50;;;;;;;0.20;0.20;;;6.80;99.90;;;;;;5041369;28;20084;-75
2023/03/18 00:57:18;;;;;;;0.20;0.20;;;6.80;99.90;;;;;;5018432;28;20025;-74
2023/03/18 00:59:44;;;;;;;0.20;0.20;;;6.80;99.90;;;;;;5041430;28;20033;-75
2023/03/18 01:02:09;;;;;;;0.20;0.20;;;6.80;99.90;;;;;;5036508;28;20064;-74
2023/03/18 01:04:35;;;;;;;0.20;0.20;;;6.90;99.90;;;;;;5035129;28;20021;-75
2023/03/18 01:07:01;;;;;;;0.20;0.20;;;6.90;99.90;;;;;;5055816;28;20390;-75
2023/03/18 01:09:27;;;;;;;0.20;0.20;;;7.00;99.90;;;;;;5055043;28;20025;-75
2023/03/18 01:11:52;;;;;;;0.20;0.20;;;7.10;99.90;;;;;;5055730;28;20029;-74
2023/03/18 01:14:18;;;;;;;0.20;0.20;;;7.10;99.90;;;;;;5054690;28;20017;-75
2023/03/18 01:16:45;;;;;;;0.17;0.17;;;7.20;99.90;;;;;;5046229;28;20030;-75
2023/03/18 01:19:12;;;;;;;0.15;0.15;;;7.30;99.90;;;;;;5035471;28;20497;-75
2023/03/18 01:21:38;;;;;;;0.13;0.13;;;7.40;99.90;;;;;;5040648;28;20383;-76
2023/03/18 01:24:06;;;;;;;0.13;0.13;;;7.40;99.90;;;;;;5055580;28;20032;-75
2023/03/18 01:26:32;;;;;;;0.20;0.20;;;7.50;99.90;;;;;;5055065;28;20070;-75
2023/03/18 01:28:58;;;;;;;0.20;0.20;;;7.50;99.90;;;;;;5054680;28;20032;-75
2023/03/18 01:31:24;;;;;;;0.20;0.20;;;7.60;99.90;;;;;;5054965;28;20029;-75
2023/03/18 01:33:50;;;;;;;0.10;0.10;;;7.60;99.90;;;;;;5055435;28;20024;-75
2023/03/18 01:36:16;;;;;;;0.20;0.20;;;7.60;99.90;;;;;;5054189;28;20025;-75
2023/03/18 01:38:42;;;;;;;0.20;0.20;;;7.60;99.90;;;;;;5055330;28;20033;-75
2023/03/18 01:41:08;;;;;;;0.20;0.20;;;7.60;99.90;;;;;;5036564;28;20542;-75
2023/03/18 01:43:37;;;;;;;0.10;0.10;;;7.60;99.90;;;;;;5055407;28;20029;-75
2023/03/18 01:46:23;;;;;;;0.20;0.20;;;7.60;99.90;;;;;;5037149;28;20066;-75
2023/03/18 01:48:50;;;;;;;0.20;0.20;;;7.50;99.90;;;;;;5054208;28;20494;-75
2023/03/18 01:51:18;;;;;;;0.20;0.20;;;7.60;99.90;;;;;;5036601;28;20033;-75
2023/03/18 01:53:48;;;;;;;0.20;0.20;;;7.60;99.90;;;;;;5055015;28;20036;-75
2023/03/18 01:56:14;;;;;;;0.10;0.10;;;7.60;99.90;;;;;;5054213;28;20037;-75
2023/03/18 01:58:45;;;;;;;0.20;0.20;;;7.60;99.90;;;;;;5055011;28;20565;-75
2023/03/18 02:01:34;;;;;;;0.20;0.20;;;7.60;99.90;;;;;;5054755;28;20056;-75
2023/03/18 02:04:03;;;;;;;0.20;0.20;;;7.60;99.90;;;;;;5017699;28;20032;-75
2023/03/18 02:06:29;;;;;;;0.20;0.20;;;7.60;99.90;;;;;;5054436;28;20054;-76
2023/03/18 02:08:55;;;;;;;0.20;0.20;;;7.60;99.90;;;;;;5078962;23;20049;-75
2023/03/18 02:11:22;;;;;;;0.20;0.20;;;7.60;99.90;;;;;;5053495;28;20049;-75
2023/03/18 02:13:48;;;;;;;0.20;0.20;;;7.70;99.90;;;;;;5060604;28;20020;-75
2023/03/18 02:16:42;;;;;;;0.20;0.20;;;7.60;99.90;;;;;;5056641;28;20044;-75
2023/03/18 02:19:28;;;;;;;0.20;0.20;;;7.70;99.90;;;;;;5074895;28;20028;-74
2023/03/18 02:22:25;;;;;;;0.20;0.20;;;7.60;99.90;;;;;;5074969;28;20485;-75
2023/03/18 02:25:37;;;;;;;0.20;0.20;;;7.60;99.90;;;;;;5062296;28;20117;-75
2023/03/18 02:28:11;;;;;;;0.20;0.20;;;7.50;99.90;;;;;;4973482;28;20604;-75
2023/03/18 02:30:41;;;;;;;0.20;0.20;;;7.50;99.90;;;;;;4973740;28;20031;-75
2023/03/18 02:33:09;;;;;;;0.10;0.10;;;7.50;99.90;;;;;;5028953;28;20478;-75
2023/03/18 02:35:38;;;;;;;0.20;0.20;;;7.60;99.90;;;;;;5074602;28;20036;-75
2023/03/18 02:38:04;;;;;;;0.20;0.20;;;7.60;99.90;;;;;;5073959;28;20401;-75
2023/03/18 02:40:32;;;;;;;0.20;0.20;;;7.60;99.90;;;;;;5058664;28;20024;-75
2023/03/18 02:43:17;;;;;;;0.20;0.20;;;7.60;99.90;;;;;;5078341;28;20473;-75
2023/03/18 02:46:05;;;;;;;0.20;0.20;;;7.60;99.90;;;;;;5060499;28;20402;-75
2023/03/18 02:48:36;;;;;;;0.20;0.20;;;7.50;99.90;;;;;;5060043;28;20382;-75
2023/03/18 02:51:03;;;;;;;0.20;0.20;;;7.50;99.90;;;;;;5060021;28;20029;-75
2023/03/18 02:53:28;;;;;;;0.20;0.20;;;7.50;99.90;;;;;;5078368;28;20031;-75
2023/03/18 02:55:54;;;;;;;0.13;0.13;;;7.50;99.90;;;;;;5060581;28;20059;-75
2023/03/18 02:58:19;;;;;;;0.30;0.30;;;7.50;99.90;;;;;;5078269;28;20474;-75
2023/03/18 03:00:45;;;;;;;0.20;0.20;;;7.50;99.90;;;;;;5077862;28;20494;-75
2023/03/18 03:03:11;;;;;;;0.13;0.13;;;7.50;99.90;;;;;;5079502;28;20046;-74
2023/03/18 03:05:37;;;;;;;0.20;0.20;;;7.40;99.90;;;;;;5078920;28;20048;-74
2023/03/18 03:08:03;;;;;;;0.20;0.20;;;7.40;99.90;;;;;;5079879;28;20032;-75
2023/03/18 03:10:29;;;;;;;0.17;0.17;;;7.40;99.90;;;;;;5079652;28;20024;-75
2023/03/18 03:12:55;;;;;;;0.20;0.20;;;7.40;99.90;;;;;;5077826;28;20024;-75
2023/03/18 03:15:21;;;;;;;0.10;0.10;;;7.40;99.90;;;;;;5077479;28;20100;-75
2023/03/18 03:17:47;;;;;;;0.20;0.20;;;7.40;99.90;;;;;;5045424;28;20025;-75
2023/03/18 03:20:14;;;;;;;0.15;0.15;;;7.40;99.90;;;;;;5057766;28;20021;-75
2023/03/18 03:22:40;;;;;;;0.20;0.20;;;7.40;99.90;;;;;;5052949;28;20104;-76
2023/03/18 03:25:08;;;;;;;0.20;0.20;;;7.40;99.90;;;;;;5057313;28;20104;-75
2023/03/18 03:27:34;;;;;;;0.20;0.20;;;7.40;99.90;;;;;;5054851;28;20375;-75
2023/03/18 03:30:00;;;;;;;0.20;0.20;;;7.50;99.90;;;;;;5059777;28;20135;-76
2023/03/18 03:32:25;;;;;;;0.20;0.20;;;7.50;99.90;;;;;;5077363;28;20025;-76
2023/03/18 03:34:51;;;;;;;0.15;0.15;;;7.50;99.90;;;;;;5055981;28;20100;-75
2023/03/18 03:37:17;;;;;;;0.20;0.20;;;7.50;99.90;;;;;;5054785;28;20060;-75
2023/03/18 03:39:44;;;;;;;0.20;0.20;;;7.50;99.90;;;;;;5057350;28;20025;-75
2023/03/18 03:42:10;;;;;;;0.20;0.20;;;7.60;99.90;;;;;;5048412;28;20467;-75
2023/03/18 03:44:36;;;;;;;0.20;0.20;;;7.60;99.90;;;;;;5049695;28;20075;-75
2023/03/18 03:47:02;;;;;;;0.22;0.22;;;7.50;99.90;;;;;;5076438;28;20028;-75
2023/03/18 03:49:28;;;;;;;0.10;0.10;;;7.50;99.90;;;;;;5077128;28;20025;-75
2023/03/18 03:51:53;;;;;;;0.10;0.10;;;7.60;99.90;;;;;;5058249;28;20534;-75
2023/03/18 03:54:19;;;;;;;0.20;0.20;;;7.50;99.90;;;;;;5076960;28;20081;-75
2023/03/18 03:56:44;;;;;;;0.20;0.20;;;7.50;99.90;;;;;;5076518;28;20099;-75
2023/03/18 03:59:10;;;;;;;0.30;0.30;;;7.60;99.90;;;;;;5063974;28;20035;-75
2023/03/18 04:01:36;;;;;;;0.20;0.20;;;7.60;99.90;;;;;;5057285;28;20033;-75
2023/03/18 04:04:02;;;;;;;0.15;0.15;;;7.50;99.90;;;;;;5052077;28;20502;-75
2023/03/18 04:06:28;;;;;;;0.10;0.10;;;7.50;99.90;;;;;;5056661;28;20017;-75
2023/03/18 04:08:54;;;;;;;0.20;0.20;;;7.50;99.90;;;;;;5056221;28;20041;-75
2023/03/18 04:11:20;;;;;;;0.20;0.20;;;7.50;99.90;;;;;;5056805;28;20025;-75
2023/03/18 04:13:46;;;;;;;0.20;0.20;;;7.50;99.90;;;;;;5049890;28;20032;-75
2023/03/18 04:16:13;;;;;;;0.20;0.20;;;7.50;99.90;;;;;;5037126;28;20034;-75
2023/03/18 04:18:39;;;;;;;0.20;0.20;;;7.50;99.90;;;;;;5032371;23;20048;-75
2023/03/18 04:21:04;;;;;;;0.20;0.20;;;7.50;99.90;;;;;;5019034;28;20029;-75
2023/03/18 04:23:31;;;;;;;0.15;0.15;;;7.50;99.90;;;;;;5035975;28;20048;-74
2023/03/18 04:25:57;;;;;;;0.20;0.20;;;7.50;99.90;;;;;;5035029;28;20025;-75
2023/03/18 04:28:23;;;;;;;0.20;0.20;;;7.50;99.90;;;;;;5036596;28;20478;-75
2023/03/18 04:30:49;;;;;;;0.20;0.20;;;7.50;99.90;;;;;;5036436;28;20040;-75
2023/03/18 04:33:15;;;;;;;0.17;0.17;;;7.50;99.90;;;;;;5019001;28;20030;-75
2023/03/18 04:35:44;;;;;;;0.20;0.20;;;7.50;99.90;;;;;;5036370;28;20036;-75
2023/03/18 04:38:09;;;;;;;0.20;0.20;;;7.40;99.90;;;;;;5036689;28;20410;-75
2023/03/18 04:40:37;;;;;;;0.20;0.20;;;7.50;99.90;;;;;;5036371;28;20025;-75
2023/03/18 04:43:03;;;;;;;0.30;0.30;;;7.50;99.90;;;;;;5036684;28;20032;-75
2023/03/18 04:45:31;;;;;;;0.20;0.20;;;7.40;99.90;;;;;;5036386;28;20057;-75
2023/03/18 04:47:57;;;;;;;0.20;0.20;;;7.40;99.90;;;;;;5018047;28;20032;-75
2023/03/18 04:50:23;;;;;;;0.20;0.20;;;7.30;99.90;;;;;;5036766;28;20030;-75
2023/03/18 04:52:49;;;;;;;0.20;0.20;;;7.40;99.90;;;;;;5018365;28;20022;-75
2023/03/18 04:55:19;;;;;;;0.15;0.15;;;7.30;99.90;;;;;;5036515;28;20112;-75
2023/03/18 04:57:45;;;;;;;0.20;0.20;;;7.30;99.90;;;;;;5017418;28;20048;-75
2023/03/18 05:00:16;;;;;;;0.20;0.20;;;7.40;99.90;;;;;;5018627;28;20049;-75
2023/03/18 05:02:42;;;;;;;0.10;0.10;;;7.40;99.90;;;;;;5036140;28;20563;-75
2023/03/18 05:05:09;;;;;;;0.20;0.20;;;7.40;99.90;;;;;;5035907;28;20057;-75
2023/03/18 05:07:35;;;;;;;0.20;0.20;;;7.40;99.90;;;;;;5018019;28;20502;-75
2023/03/18 05:10:02;;;;;;;0.20;0.20;;;7.50;99.90;;;;;;5017703;28;20091;-75
2023/03/18 05:12:27;;;;;;;0.20;0.20;;;7.40;99.90;;;;;;5036144;28;20021;-75
2023/03/18 05:14:53;;;;;;;0.20;0.20;;;7.60;99.90;;;;;;5035650;28;20033;-75
2023/03/18 05:17:19;;;;;;;0.20;0.20;;;7.50;99.90;;;;;;5036036;28;20091;-75
2023/03/18 05:19:47;;;;;;;0.17;0.17;;;7.40;99.90;;;;;;5017568;28;20495;-75
2023/03/18 05:22:15;;;;;;;0.17;0.17;;;7.40;99.90;;;;;;5035873;28;20021;-75
2023/03/18 05:24:42;;;;;;;0.17;0.17;;;7.40;99.90;;;;;;5017811;28;20029;-75
2023/03/18 05:27:09;;;;;;;0.15;0.15;;;7.50;99.90;;;;;;5035720;28;20044;-75
2023/03/18 05:29:37;;;;;;;0.20;0.20;;;7.50;99.90;;;;;;5017951;28;20549;-75
2023/03/18 05:32:05;;;;;;;0.20;0.20;;;7.50;99.90;;;;;;5016903;28;20033;-75
2023/03/18 05:34:30;;;;;;;0.10;0.10;;;7.50;99.90;;;;;;5017972;28;20036;-75
2023/03/18 05:36:56;;;;;;;0.20;0.20;;;7.60;99.90;;;;;;5035288;28;20037;-75
2023/03/18 05:39:22;;;;;;;0.20;0.20;;;7.60;99.90;;;;;;5017693;28;20079;-75
2023/03/18 05:41:47;;;;;;;0.20;0.20;;;7.60;99.90;;;;;;5035363;28;20031;-75
2023/03/18 05:44:13;;;;;;;0.20;0.20;;;7.60;99.90;;;;;;5017179;28;20092;-74
2023/03/18 05:46:39;;;;;;;0.20;0.20;;;7.60;99.90;;;;;;5035078;28;20072;-75
2023/03/18 05:49:04;;;;;;;0.20;0.20;;;7.50;99.90;;;;;;5017501;28;20101;-75
2023/03/18 05:51:32;;;;;;;0.20;0.20;;;7.60;99.90;;;;;;5035511;28;20057;-75
2023/03/18 05:53:57;;;;;;;0.20;0.20;;;7.60;99.90;;;;;;5035121;28;20036;-75
2023/03/18 05:56:23;;;;;;;0.20;0.20;;;7.50;99.90;;;;;;5035053;28;20029;-74
2023/03/18 05:58:50;;;;;;;0.20;0.20;;;7.50;99.90;;;;;;5032550;28;20394;-75
2023/03/18 06:01:15;;;;;;;0.20;0.20;;;7.50;99.90;;;;;;5035282;28;20013;-75
2023/03/18 06:03:41;;;;;;;0.20;0.20;;;7.50;99.90;;;;;;5034614;28;20024;-75
2023/03/18 06:06:07;;;;;;;0.20;0.20;;;7.50;99.90;;;;;;5035264;28;20033;-75
2023/03/18 06:08:33;;;;;;;0.20;0.20;;;7.50;99.90;;;;;;5020977;23;20037;-75
2023/03/18 06:10:59;;;;;;;0.10;0.10;;;7.50;99.90;;;;;;5015102;28;20021;-75
2023/03/18 06:13:25;;;;;;;0.20;0.20;;;7.50;99.90;;;;;;5009365;28;20395;-75
2023/03/18 06:15:58;;;;;;;0.20;0.20;;;7.50;99.90;;;;;;4995521;28;20022;-75
2023/03/18 06:18:24;;;;;;;0.20;0.20;;;7.50;99.90;;;;;;4994699;28;20041;-74
2023/03/18 06:20:50;;;;;;;0.20;0.20;;;7.60;99.90;;;;;;4995062;28;20265;-75
2023/03/18 06:23:15;;;;;;;0.20;0.20;;;7.50;99.90;;;;;;4994640;28;20019;-75
2023/03/18 06:25:41;;;;;;;0.20;0.20;;;7.50;99.90;;;;;;4994604;28;20080;-75
2023/03/18 06:28:07;;;;;;;0.20;0.20;;;7.60;99.90;;;;;;4995701;28;20076;-75
2023/03/18 06:30:33;;;;;;;0.17;0.17;;;7.60;99.90;;;;;;4994871;28;20038;-75
2023/03/18 06:32:59;;;;;;;0.20;0.20;;;7.60;99.90;;;;;;4994150;28;20022;-75
2023/03/18 06:35:26;;;;;;;0.10;0.10;;;7.70;99.90;;;;;;4995069;28;20031;-75
2023/03/18 06:37:52;;;;;;;0.20;0.20;;;7.70;99.90;;;;;;4993542;28;20089;-74
2023/03/18 06:40:21;;;;;;;0.10;0.10;;;7.70;99.90;;;;;;4995002;28;20022;-74
2023/03/18 06:42:46;;;;;;;0.22;0.22;;;7.80;99.90;;;;;;4993595;28;20452;-75
2023/03/18 06:45:12;;;;;;;0.20;0.20;;;7.80;99.90;;;;;;4995726;28;20101;-74
2023/03/18 06:47:38;;;;;;;0.20;0.20;;;7.80;99.90;;;;;;4994656;28;20022;-75
2023/03/18 06:50:04;;;;;;;0.13;0.13;;;7.90;99.90;;;;;;4995383;28;20109;-74
2023/03/18 06:52:30;;;;;;;0.20;0.20;;;7.90;99.90;;;;;;4990416;28;20457;-74
2023/03/18 06:54:56;;;;;;;0.20;0.20;;;8.00;99.90;;;;;;4976037;28;20035;-74
2023/03/18 06:57:21;;;;;;;0.20;0.20;;;8.00;99.90;;;;;;4976077;28;20027;-74
2023/03/18 06:59:47;;;;;;;0.20;0.20;;;8.00;99.90;;;;;;4977921;28;20038;-74
2023/03/18 07:02:14;;;;;;;0.20;0.20;;;8.00;99.90;;;;;;4959525;28;20473;-74
2023/03/18 07:04:40;;;;;;;0.20;0.20;;;8.10;99.90;;;;;;4959665;28;20154;-75
2023/03/18 07:07:06;;;;;;;0.20;0.20;;;8.10;99.90;;;;;;4975330;28;20063;-75
2023/03/18 07:09:32;;;;;;;0.10;0.10;;;8.20;99.90;;;;;;4983604;28;20038;-75
2023/03/18 07:11:59;;;;;;;0.20;0.20;;;8.20;99.90;;;;;;4993018;28;20492;-74
2023/03/18 07:14:24;;;;;;;0.20;0.20;;;8.30;99.90;;;;;;4994571;28;20026;-74
2023/03/18 07:16:50;;;;;;;0.20;0.20;;;8.40;99.90;;;;;;4980787;28;20081;-75
2023/03/18 07:19:17;;;;;;;0.13;0.13;;;8.30;99.90;;;;;;4974914;28;20034;-74
2023/03/18 07:21:42;;;;;;;0.20;0.20;;;8.40;99.90;;;;;;4975022;28;20057;-74
2023/03/18 07:24:08;;;;;;;0.10;0.10;;;8.40;99.90;;;;;;4990596;28;20026;-74
2023/03/18 07:26:34;;;;;;;0.10;0.10;;;8.50;99.90;;;;;;4995848;28;20023;-74
2023/03/18 07:29:00;;;;;;;0.20;0.20;;;8.60;99.90;;;;;;4998116;28;20032;-75
2023/03/18 07:31:26;;;;;;;0.20;0.20;;;8.60;99.90;;;;;;4998773;28;20030;-74
2023/03/18 07:33:51;;;;;;;0.20;0.20;;;8.70;99.90;;;;;;4998142;28;20022;-75
2023/03/18 07:36:18;;;;;;;0.20;0.20;;;8.70;99.90;;;;;;4998347;28;20030;-75
2023/03/18 07:38:43;;;;;;;0.10;0.10;;;8.70;99.90;;;;;;5033857;23;20385;-75
2023/03/18 07:41:10;;;;;;;0.17;0.17;;;8.70;99.90;;;;;;5019717;28;20028;-75
2023/03/18 07:43:39;;;;;;;0.20;0.20;;;8.80;99.90;;;;;;5026460;28;20553;-75
2023/03/18 07:46:04;;;;;;;0.20;0.20;;;8.80;99.90;;;;;;4999913;28;20049;-75
2023/03/18 07:48:32;;;;;;;0.20;0.20;;;8.80;99.90;;;;;;4999929;28;20045;-75
2023/03/18 07:50:59;;;;;;;0.10;0.10;;;8.70;99.90;;;;;;5016098;28;20112;-74
2023/03/18 07:53:25;;;;;;;0.10;0.10;;;8.80;99.90;;;;;;5017452;28;20037;-74
2023/03/18 07:55:50;;;;;;;0.20;0.20;;;8.80;99.90;;;;;;5016704;28;20022;-74
2023/03/18 07:58:16;;;;;;;0.17;0.17;;;8.90;99.90;;;;;;5038875;23;20104;-74
2023/03/18 08:00:43;;;;;;;0.10;0.10;;;8.90;99.90;;;;;;5057006;28;20033;-74
2023/03/18 08:03:10;;;;;;;0.20;0.20;;;8.90;99.90;;;;;;5057396;28;20474;-74
2023/03/18 08:05:35;;;;;;;0.10;0.10;;;9.00;99.90;;;;;;5071558;28;20077;-74
2023/03/18 08:08:03;;;;;;;0.10;0.10;;;9.10;99.90;;;;;;5077086;28;20028;-74
2023/03/18 08:10:29;;;;;;;0.10;0.10;;;9.10;99.90;;;;;;5076316;28;20050;-74
2023/03/18 08:12:55;;;;;;;0.10;0.10;;;9.10;99.90;;;;;;5076340;28;20397;-74
2023/03/18 08:15:21;;;;;;;0.20;0.20;;;9.10;99.90;;;;;;5058840;28;20032;-74
2023/03/18 08:17:47;;;;;;;0.20;0.20;;;9.10;99.90;;;;;;5076041;28;20025;-74
2023/03/18 08:20:14;;;;;;;0.20;0.20;;;9.00;99.90;;;;;;5076672;28;20085;-74
2023/03/18 08:22:39;;;;;;;0.10;0.10;;;9.10;99.90;;;;;;5058092;28;20493;-75
2023/03/18 08:25:06;;;;;;;0.20;0.20;;;9.20;99.90;;;;;;5058376;28;20032;-74
2023/03/18 08:27:33;;;;;;;0.10;0.10;;;9.30;99.90;;;;;;5076380;28;20028;-75
2023/03/18 08:29:59;;;;;;;0.20;0.20;;;9.50;99.90;;;;;;5059321;28;20032;-75
2023/03/18 08:32:28;;;;;;;0.20;0.20;;;9.50;99.90;;;;;;5076183;28;20040;-75
2023/03/18 08:34:53;;;;;;;0.20;0.20;;;9.60;99.90;;;;;;5076101;28;20028;-75
2023/03/18 08:37:19;;;;;;;0.20;0.20;;;9.60;99.90;;;;;;5076056;28;20382;-74
2023/03/18 08:39:44;;;;;;;0.20;0.20;;;9.60;99.90;;;;;;5075875;28;20111;-74
2023/03/18 08:42:10;;;;;;;0.20;0.20;;;9.70;99.90;;;;;;5076921;28;20020;-74
2023/03/18 08:44:36;;;;;;;0.20;0.20;;;9.90;99.90;;;;;;5076039;28;20070;-74
2023/03/18 08:47:02;;;;;;;0.10;0.10;;;10.10;99.90;;;;;;5076120;28;20021;-74
2023/03/18 08:49:33;;;;;;;0.20;0.20;;;10.20;99.90;;;;;;5075884;28;20028;-74
2023/03/18 08:51:58;;;;;;;0.10;0.10;;;10.20;99.90;;;;;;5076142;28;20028;-74
2023/03/18 08:54:24;;;;;;;0.20;0.20;;;10.30;99.90;;;;;;5057519;28;20020;-74
2023/03/18 08:56:51;;;;;;;0.20;0.20;;;10.20;99.90;;;;;;5075852;28;20155;-74
2023/03/18 08:59:17;;;;;;;0.20;0.20;;;10.20;99.90;;;;;;5057806;28;20070;-74
2023/03/18 09:01:42;;;;;;;0.10;0.10;;;10.10;99.90;;;;;;5075746;28;20433;-74
2023/03/18 09:04:08;;;;;;;0.10;0.10;;;10.20;99.90;;;;;;5075510;28;20051;-74
2023/03/18 09:06:33;;;;;;;0.15;0.15;;;10.10;99.90;;;;;;5075634;28;20482;-74
2023/03/18 09:08:59;;;;;;;0.13;0.13;;;10.20;99.90;;;;;;5069601;22;20037;-74
2023/03/18 09:11:25;;;;;;;0.20;0.20;;;10.20;99.90;;;;;;5037087;28;20401;-75
2023/03/18 09:13:51;;;;;;;0.20;0.20;;;10.20;99.90;;;;;;5046059;28;20041;-74
2023/03/18 09:16:17;;;;;;;0.20;0.20;;;10.40;99.90;;;;;;5026148;28;20021;-74
2023/03/18 09:18:43;;;;;;;0.20;0.20;;;10.40;99.90;;;;;;5037516;28;20029;-74
2023/03/18 09:21:08;;;;;;;0.20;0.20;;;10.50;99.90;;;;;;5055142;28;20458;-74
2023/03/18 09:23:34;;;;;;;0.20;0.20;;;10.60;99.90;;;;;;5055542;28;20040;-74
2023/03/18 09:26:02;;;;;;;0.20;0.20;;;10.50;99.90;;;;;;5052979;28;20028;-74
2023/03/18 09:28:28;;;;;;;0.20;0.20;;;10.30;99.90;;;;;;5047976;23;20046;-74
2023/03/18 09:30:54;;;;;;;0.10;0.10;;;10.30;99.90;;;;;;5015938;28;20591;-74
2023/03/18 09:33:21;;;;;;;0.20;0.20;;;10.20;99.90;;;;;;5015172;28;20080;-74
2023/03/18 09:35:47;;;;;;;0.20;0.20;;;10.30;99.90;;;;;;5014290;28;20435;-74
2023/03/18 09:38:15;;;;;;;0.10;0.10;;;10.20;99.90;;;;;;5035113;28;20079;-74
2023/03/18 09:41:00;;;;;;;0.20;0.20;;;10.10;99.90;;;;;;5035644;28;20028;-74
2023/03/18 09:43:43;;;;;;;0.20;0.20;;;10.00;99.90;;;;;;5017686;28;20028;-74
2023/03/18 09:46:17;;;;;;;0.20;0.20;;;10.00;99.90;;;;;;5035592;28;20018;-74
2023/03/18 09:49:01;;;;;;;;;;;10.00;99.90;;;;;;5035465;28;20117;-74
2023/03/18 09:52:12;;;;;;;0.25;0.25;;;10.00;99.90;;;;;;5034819;28;19956;-74
2023/03/18 09:55:04;;;;;;;0.20;0.20;;;9.90;99.90;;;;;;5034951;28;20036;-74
2023/03/18 09:57:35;;;;;;;0.20;0.20;;;9.90;99.90;;;;;;5034024;28;20031;-75
2023/03/18 10:00:04;;;;;;;0.20;0.20;;;9.90;99.90;;;;;;5017107;28;20021;-74
2023/03/18 10:02:41;;;;;;;0.13;0.13;;;9.90;99.90;;;;;;5035196;28;20360;-74
2023/03/18 10:05:33;;;;;;;0.20;0.20;;;9.90;99.90;;;;;;5035027;28;20032;-74
2023/03/18 10:08:20;;;;;;;0.20;0.20;;;10.10;99.90;;;;;;5011332;28;20037;-74
2023/03/18 10:10:47;;;;;;;0.20;0.20;;;10.40;99.90;;;;;;5017049;28;20083;-74
2023/03/18 10:13:43;;;;;;;0.20;0.20;;;10.30;99.90;;;;;;5034206;28;20071;-74
2023/03/18 10:16:19;;;;;;;0.20;0.20;;;10.40;99.90;;;;;;5034785;28;20109;-74
2023/03/18 10:18:45;;;;;;;0.20;0.20;;;10.60;99.90;;;;;;5034551;28;20072;-74
2023/03/18 10:21:29;;;;;;;0.20;0.20;;;10.70;99.90;;;;;;5016595;28;20018;-75
2023/03/18 10:24:04;;;;;;;0.20;0.20;;;10.80;99.90;;;;;;5034819;28;20402;-74
2023/03/18 10:26:32;;;;;;;0.20;0.20;;;11.10;99.90;;;;;;5034824;28;20021;-74
2023/03/18 10:29:36;;;;;;;0.20;0.20;;;11.30;99.90;;;;;;5016369;28;20087;-75
2023/03/18 10:32:39;;;;;;;0.20;0.20;;;11.20;99.90;;;;;;5034193;28;20021;-75
2023/03/18 10:35:32;;;;;;;0.20;0.20;;;11.20;99.90;;;;;;5034416;28;20395;-74
2023/03/18 10:38:03;;;;;;;0.20;0.20;;;11.30;99.90;;;;;;5034467;28;20026;-75
2023/03/18 10:40:40;;;;;;;0.20;0.20;;;11.30;99.90;;;;;;5016750;28;20040;-75
2023/03/18 10:43:18;;;;;;;0.20;0.20;;;11.20;99.90;;;;;;5034731;28;20028;-75
2023/03/18 10:45:45;;;;;;;0.20;0.20;;;11.20;99.90;;;;;;5035023;28;20044;-74
2023/03/18 10:48:27;;;;;;;0.20;0.20;;;11.20;99.90;;;;;;5034527;28;20021;-75
2023/03/18 10:50:53;;;;;;;0.20;0.20;;;11.20;99.90;;;;;;5034680;28;20017;-74
2023/03/18 10:53:26;;;;;;;0.20;0.20;;;11.20;99.90;;;;;;5036102;28;20029;-74
2023/03/18 10:56:09;;;;;;;0.20;0.20;;;11.30;99.90;;;;;;5035785;28;20080;-74
2023/03/18 10:58:37;;;;;;;0.10;0.10;;;11.40;99.90;;;;;;5052501;22;20302;-74
2023/03/18 11:01:07;;;;;;;0.10;0.10;;;11.30;99.90;;;;;;5054858;28;20025;-75
2023/03/18 11:03:50;;;;;;;0.15;0.15;;;11.30;99.90;;;;;;5058187;28;20048;-74
2023/03/18 11:06:25;;;;;;;0.20;0.20;;;11.30;99.90;;;;;;5057720;28;20060;-75
2023/03/18 11:09:01;;;;;;;0.20;0.20;;;11.30;99.90;;;;;;5057654;28;20017;-74
2023/03/18 11:11:31;;;;;;;0.20;0.20;;;11.40;99.90;;;;;;5057633;28;20078;-75
2023/03/18 11:14:12;;;;;;;0.10;0.10;;;11.60;99.90;;;;;;5057665;28;20056;-74
2023/03/18 11:16:41;;;;;;;0.10;0.10;;;11.90;99.90;;;;;;5057630;28;20040;-74
2023/03/18 11:19:36;;;;;;;0.20;0.20;;;12.50;99.90;;;;;;5057314;28;20083;-75
2023/03/18 11:22:23;;;;;;;0.10;0.10;;;12.80;99.90;;;;;;5057339;28;20024;-74
2023/03/18 11:25:15;;;;;;;0.10;0.10;;;13.10;99.90;;;;;;5039185;28;20512;-75
2023/03/18 11:27:47;;;;;;;0.10;0.10;;;13.30;99.90;;;;;;5039679;28;20558;-75
2023/03/18 11:30:22;;;;;;;0.20;0.20;;;13.30;99.90;;;;;;5057374;28;20033;-74
2023/03/18 11:33:15;;;;;;;;;;;;;;;;;;;;;
2023/03/18 11:35:48;;;;;;;0.20;0.20;;;13.40;99.90;;;;;;5055179;28;20029;-75
2023/03/18 11:38:16;;;;;;;0.20;0.20;;;13.50;99.90;;;;;;5047674;28;20034;-76
2023/03/18 11:40:45;;;;;;;0.10;0.10;;;13.80;99.90;;;;;;5037096;28;20097;-75
2023/03/18 11:43:17;;;;;;;0.20;0.20;;;14.30;99.90;;;;;;5037177;28;20394;-75
2023/03/18 11:45:46;;;;;;;0.13;0.13;;;14.50;99.90;;;;;;5037618;28;20029;-75
2023/03/18 11:48:29;;;;;;;0.10;0.10;;;14.40;99.90;;;;;;5038898;28;20025;-75
2023/03/18 11:51:09;;;;;;;0.10;0.10;;;14.30;99.90;;;;;;5046038;28;20045;-75
2023/03/18 11:54:08;;;;;;;0.15;0.15;;;14.70;99.90;;;;;;5045034;28;20099;-75
2023/03/18 11:56:58;;;;;;;0.10;0.10;;;15.40;99.90;;;;;;5030522;28;20044;-75
2023/03/18 11:59:47;;;;;;;0.10;0.10;;;15.60;99.90;;;;;;5054201;28;20036;-76
2023/03/18 12:02:45;;;;;;;0.13;0.13;;;15.70;99.90;;;;;;5035846;28;20135;-75
2023/03/18 12:05:45;;;;;;;0.17;0.17;;;15.30;99.90;;;;;;5036904;28;20163;-75
2023/03/18 12:08:44;;;;;;;0.10;0.10;;;14.90;99.90;;;;;;5036266;28;20414;-75
2023/03/18 12:11:25;;;;;;;0.20;0.20;;;14.30;99.90;;;;;;5039765;28;20025;-75
2023/03/18 12:14:08;;;;;;;0.20;0.20;;;14.10;99.90;;;;;;5045798;28;20043;-75
2023/03/18 12:16:57;;;;;;;0.10;0.10;;;14.10;99.90;;;;;;5056184;28;20033;-74
2023/03/18 12:19:47;;;;;;;0.20;0.20;;;14.30;99.90;;;;;;5056806;28;20021;-74
2023/03/18 12:22:36;;;;;;;0.20;0.20;;;14.70;99.90;;;;;;5057208;28;20036;-75
2023/03/18 12:25:22;;;;;;;0.20;0.20;;;14.70;99.90;;;;;;5052783;28;20025;-75
2023/03/18 12:28:15;;;;;;;0.20;0.20;;;14.80;99.90;;;;;;5056516;28;20051;-75
2023/03/18 12:31:15;;;;;;;0.20;0.20;;;14.90;99.90;;;;;;5055934;28;20048;-75
2023/03/18 12:34:00;;;;;;;0.13;0.13;;;15.50;99.90;;;;;;5056338;28;20040;-75
2023/03/18 12:36:48;;;;;;;0.10;0.10;;;15.90;99.90;;;;;;5056532;28;20096;-75
2023/03/18 12:39:20;;;;;;;0.20;0.20;;;15.90;99.90;;;;;;5036752;28;20021;-75
2023/03/18 12:42:01;;;;;;;0.20;0.20;;;15.80;99.90;;;;;;5035577;28;20026;-75
2023/03/18 12:44:37;;;;;;;0.20;0.20;;;15.20;99.90;;;;;;5035953;28;20018;-75
2023/03/18 12:47:09;;;;;;;0.20;0.20;;;14.70;99.90;;;;;;5018377;28;20053;-75
2023/03/18 12:49:43;;;;;;;0.20;0.20;;;14.40;99.90;;;;;;5102878;22;20033;-74
2023/03/18 12:52:36;;;;;;;0.20;0.20;;;14.30;99.90;;;;;;5055710;28;20017;-75
2023/03/18 12:55:15;;;;;;;0.20;0.20;;;14.00;99.90;;;;;;5056279;28;20062;-75
2023/03/18 12:57:58;;;;;;;0.20;0.20;;;13.90;99.90;;;;;;5055493;28;20028;-75
2023/03/18 13:00:31;;;;;;;0.20;0.20;;;13.80;99.90;;;;;;5055532;28;20036;-75
2023/03/18 13:03:08;;;;;;;0.15;0.15;;;14.00;99.90;;;;;;5054880;28;20021;-75
2023/03/18 13:05:52;;;;;;;0.10;0.10;;;14.00;99.90;;;;;;5039796;28;20042;-74
2023/03/18 13:08:17;;;;;;;;;;;13.70;99.90;;;;;;5018129;28;20437;-75
2023/03/18 13:10:53;;;;;;;0.13;0.13;;;13.40;99.90;;;;;;5053028;28;19909;-74
2023/03/18 13:13:21;;;;;;;0.20;0.20;;;13.00;99.90;;;;;;5054885;28;20052;-75